Time;durP1;ratioP1;P1;durP2;ratioP2;P2;SDS_P1;SDS_P2;PMS_P1;PMS_P2;Temp;Humidity;BMP_temperature;BMP_pressure;BME280_temperature;BME280_humidity;BME280_pressure;Samples;Min_cycle;Max_cycle;Signal;HPM_P1;HPM_P2
2024/04/14 00:01:40;;;;;;;7.25;3.50;;;;;;;17.50;54.75;99317.66;5418468;26;20444;-62
2024/04/14 00:04:07;;;;;;;4.40;2.97;;;;;;;17.42;55.25;99321.47;5418708;26;20004;-63
2024/04/14 00:06:35;;;;;;;5.03;2.85;;;;;;;17.37;55.19;99319.06;5418668;26;20080;-62
2024/04/14 00:09:01;;;;;;;5.93;3.40;;;;;;;17.35;54.90;99326.91;5418509;26;20000;-62
2024/04/14 00:11:28;;;;;;;7.45;3.05;;;;;;;17.32;55.37;99320.19;5416510;26;20007;-62
2024/04/14 00:13:57;;;;;;;5.88;2.85;;;;;;;17.29;55.59;99311.84;5418660;26;20099;-62
2024/04/14 00:16:23;;;;;;;6.35;2.90;;;;;;;17.27;55.47;99315.78;5418894;26;19996;-62
2024/04/14 00:18:50;;;;;;;4.97;3.38;;;;;;;17.24;55.41;99310.22;5419071;26;20011;-62
2024/04/14 00:21:21;;;;;;;4.63;3.50;;;;;;;17.22;55.17;99307.03;5418649;26;19995;-63
2024/04/14 00:23:49;;;;;;;4.13;2.88;;;;;;;17.16;55.63;99298.31;5416927;26;20000;-62
2024/04/14 00:26:15;;;;;;;5.60;3.20;;;;;;;17.13;55.82;99301.03;5418599;26;19995;-62
2024/04/14 00:28:44;;;;;;;2.95;2.65;;;;;;;17.10;55.90;99299.00;5419001;26;20433;-63
2024/04/14 00:31:11;;;;;;;6.95;3.20;;;;;;;17.11;56.02;99297.84;5418090;26;20076;-62
2024/04/14 00:33:38;;;;;;;4.07;3.25;;;;;;;17.05;55.84;99297.38;5418347;26;20014;-62
2024/04/14 00:36:05;;;;;;;4.95;3.28;;;;;;;16.99;56.07;99295.31;5418108;26;20394;-62
2024/04/14 00:38:32;;;;;;;4.63;3.03;;;;;;;16.94;56.29;99291.72;5418218;26;20008;-62
2024/04/14 00:40:59;;;;;;;7.72;2.95;;;;;;;16.94;56.52;99299.19;5417960;26;20441;-62
2024/04/14 00:43:26;;;;;;;3.75;3.00;;;;;;;16.94;56.23;99288.16;5418037;26;20004;-62
2024/04/14 00:45:53;;;;;;;3.83;2.88;;;;;;;16.94;56.45;99297.22;5418209;26;20003;-63
2024/04/14 00:48:21;;;;;;;6.63;3.25;;;;;;;16.92;56.25;99291.28;5418152;26;20455;-62
2024/04/14 00:50:49;;;;;;;4.20;3.33;;;;;;;16.88;56.38;99295.94;5415792;26;20006;-63
2024/04/14 00:53:17;;;;;;;3.83;3.03;;;;;;;16.81;56.47;99297.81;5418033;26;20488;-62
2024/04/14 00:55:44;;;;;;;4.20;3.00;;;;;;;16.78;56.64;99290.28;5418019;26;20068;-63
2024/04/14 00:58:11;;;;;;;6.63;3.55;;;;;;;16.76;56.86;99287.91;5417966;26;20081;-63
2024/04/14 01:00:39;;;;;;;3.90;3.05;;;;;;;16.75;56.77;99289.06;5417669;26;20000;-63
2024/04/14 01:03:06;;;;;;;5.47;3.60;;;;;;;16.69;56.67;99285.03;5417722;26;20014;-62
2024/04/14 01:05:33;;;;;;;6.00;3.35;;;;;;;16.61;57.11;99286.84;5417668;26;20031;-63
2024/04/14 01:08:00;;;;;;;4.18;3.28;;;;;;;16.58;57.43;99290.34;5418733;26;20018;-61
2024/04/14 01:10:29;;;;;;;5.43;3.20;;;;;;;16.54;57.36;99291.44;5417357;26;20023;-62
2024/04/14 01:12:56;;;;;;;3.35;3.05;;;;;;;16.52;57.61;99293.75;5418057;26;20000;-62
2024/04/14 01:15:23;;;;;;;6.57;3.22;;;;;;;16.51;57.78;99294.94;5417655;26;20015;-62
2024/04/14 01:17:49;;;;;;;4.70;3.22;;;;;;;16.52;57.64;99293.75;5417690;26;20040;-63
2024/04/14 01:20:16;;;;;;;4.38;3.30;;;;;;;16.50;57.77;99294.13;5417544;26;19999;-62
2024/04/14 01:22:43;;;;;;;8.43;3.25;;;;;;;16.47;57.43;99294.09;5417659;26;20010;-61
2024/04/14 01:25:11;;;;;;;4.68;3.13;;;;;;;16.45;57.74;99288.16;5417411;26;20024;-61
2024/04/14 01:27:40;;;;;;;6.65;3.42;;;;;;;16.42;57.88;99294.41;5417345;26;20014;-61
2024/04/14 01:30:07;;;;;;;6.30;3.42;;;;;;;16.38;57.66;99290.81;5417400;26;20480;-61
2024/04/14 01:32:36;;;;;;;8.65;3.78;;;;;;;16.38;58.14;99288.06;5416938;26;20000;-61
2024/04/14 01:35:04;;;;;;;3.70;3.13;;;;;;;16.40;58.04;99286.50;5417137;26;20003;-61
2024/04/14 01:37:31;;;;;;;4.40;3.38;;;;;;;16.38;58.21;99291.59;5415455;26;20018;-61
2024/04/14 01:39:57;;;;;;;6.65;3.30;;;;;;;16.34;58.21;99296.22;5417114;26;20007;-61
2024/04/14 01:42:24;;;;;;;8.68;3.67;;;;;;;16.27;58.22;99288.66;5416863;26;20003;-61
2024/04/14 01:44:51;;;;;;;8.50;3.45;;;;;;;16.25;58.39;99295.69;5417086;26;20007;-62
2024/04/14 01:47:18;;;;;;;4.75;3.42;;;;;;;16.25;58.37;99290.97;5417739;26;20014;-61
2024/04/14 01:49:45;;;;;;;8.45;3.22;;;;;;;16.24;58.50;99288.59;5415654;26;19996;-62
2024/04/14 01:52:12;;;;;;;4.55;3.38;;;;;;;16.22;57.95;99277.97;5417196;26;19996;-62
2024/04/14 01:54:39;;;;;;;4.63;3.53;;;;;;;16.26;58.32;99278.00;5417924;26;19996;-61
2024/04/14 01:57:06;;;;;;;4.78;3.28;;;;;;;16.30;58.34;99284.38;5417226;26;20011;-61
2024/04/14 01:59:32;;;;;;;7.90;4.28;;;;;;;16.29;58.42;99277.28;5417218;26;19995;-62
2024/04/14 02:01:59;;;;;;;7.65;3.97;;;;;;;16.32;58.47;99276.53;5415173;26;20003;-63
2024/04/14 02:04:26;;;;;;;6.32;3.67;;;;;;;16.33;58.54;99278.13;5416878;26;20000;-63
2024/04/14 02:06:52;;;;;;;6.47;3.53;;;;;;;16.35;58.38;99276.59;5416991;26;20478;-62
2024/04/14 02:09:19;;;;;;;8.90;4.20;;;;;;;16.32;58.38;99282.84;5416822;26;20007;-61
2024/04/14 02:11:46;;;;;;;4.68;3.28;;;;;;;16.31;58.67;99292.25;5417025;26;20012;-62
2024/04/14 02:14:13;;;;;;;6.35;3.92;;;;;;;16.24;58.12;99286.63;5416999;26;20007;-61
2024/04/14 02:16:40;;;;;;;4.78;3.40;;;;;;;16.17;58.28;99289.25;5416998;26;20007;-62
2024/04/14 02:19:06;;;;;;;5.72;3.58;;;;;;;16.16;58.49;99290.41;5416940;26;20010;-62
2024/04/14 02:21:33;;;;;;;7.07;3.47;;;;;;;16.16;58.84;99295.13;5443677;26;20095;-62
2024/04/14 02:24:00;;;;;;;4.05;3.50;;;;;;;16.17;59.18;99293.97;5416934;26;20003;-62
2024/04/14 02:26:27;;;;;;;6.20;3.63;;;;;;;16.15;58.78;99299.81;5417068;26;20076;-62
2024/04/14 02:28:53;;;;;;;5.18;3.72;;;;;;;16.17;58.84;99297.50;5416553;26;19998;-62
2024/04/14 02:31:21;;;;;;;8.70;3.85;;;;;;;16.18;59.03;99290.88;5416575;26;20003;-62
2024/04/14 02:33:48;;;;;;;6.03;3.40;;;;;;;16.16;58.93;99290.41;5416662;26;20035;-62
2024/04/14 02:36:15;;;;;;;5.65;4.00;;;;;;;16.13;59.06;99282.91;5416517;26;20004;-62
2024/04/14 02:38:42;;;;;;;5.60;3.65;;;;;;;16.12;58.76;99294.28;5416542;26;19999;-62
2024/04/14 02:41:09;;;;;;;6.28;3.90;;;;;;;16.08;58.97;99296.97;5416591;26;20086;-61
2024/04/14 02:43:36;;;;;;;11.35;3.50;;;;;;;16.04;59.11;99302.41;5416907;26;20007;-62
2024/04/14 02:46:03;;;;;;;5.97;3.90;;;;;;;16.00;59.08;99300.75;5416571;26;20073;-62
2024/04/14 02:48:30;;;;;;;5.53;3.17;;;;;;;15.92;59.17;99305.31;5416443;26;19999;-62
2024/04/14 02:50:57;;;;;;;5.82;3.65;;;;;;;15.91;59.31;99300.97;5415811;26;20000;-62
2024/04/14 02:53:24;;;;;;;6.20;3.80;;;;;;;15.92;59.46;99299.03;5416413;26;20007;-62
2024/04/14 02:55:51;;;;;;;7.72;3.20;;;;;;;15.92;59.07;99296.28;5416330;26;20081;-62
2024/04/14 02:58:18;;;;;;;4.70;3.17;;;;;;;15.93;58.97;99297.84;5414526;26;20077;-62
2024/04/14 03:00:44;;;;;;;5.68;3.72;;;;;;;15.95;59.07;99298.28;5444062;26;20000;-62
2024/04/14 03:03:11;;;;;;;4.88;3.75;;;;;;;15.96;59.37;99302.63;5420456;26;20011;-62
2024/04/14 03:05:39;;;;;;;5.55;3.85;;;;;;;16.00;59.10;99303.50;5438363;26;20035;-61
2024/04/14 03:08:06;;;;;;;5.32;3.50;;;;;;;16.01;59.06;99310.59;5449866;26;19998;-61
2024/04/14 03:10:32;;;;;;;5.97;3.53;;;;;;;15.99;58.89;99301.91;5419964;26;20005;-62
2024/04/14 03:13:00;;;;;;;6.57;3.70;;;;;;;15.97;59.07;99306.97;5452240;26;20034;-62
2024/04/14 03:15:27;;;;;;;4.18;3.53;;;;;;;15.91;59.33;99306.47;5453967;26;20006;-62
2024/04/14 03:17:54;;;;;;;6.05;3.30;;;;;;;15.88;59.40;99314.66;5455151;26;20002;-63
2024/04/14 03:20:21;;;;;;;5.53;3.47;;;;;;;15.86;59.12;99312.28;5452653;26;20462;-62
2024/04/14 03:22:48;;;;;;;4.78;3.70;;;;;;;15.83;59.22;99312.22;5454086;26;20369;-62
2024/04/14 03:25:14;;;;;;;6.65;3.63;;;;;;;15.80;59.23;99312.94;5452323;26;20068;-63
2024/04/14 03:27:41;;;;;;;7.93;3.55;;;;;;;15.71;59.43;99313.97;5452119;26;20478;-61
2024/04/14 03:30:09;;;;;;;5.40;3.50;;;;;;;15.71;59.44;99313.16;5452942;26;20014;-62
2024/04/14 03:32:36;;;;;;;5.82;3.90;;;;;;;15.74;59.77;99315.97;5455450;26;20363;-61
2024/04/14 03:35:03;;;;;;;5.47;3.88;;;;;;;15.77;59.16;99314.44;5423549;26;20030;-62
2024/04/14 03:37:30;;;;;;;4.75;3.45;;;;;;;15.77;59.73;99306.19;5442911;26;20010;-61
2024/04/14 03:39:56;;;;;;;4.97;4.05;;;;;;;15.79;59.25;99308.59;5452974;26;20074;-62
2024/04/14 03:42:23;;;;;;;5.60;3.28;;;;;;;15.72;59.30;99310.03;5451919;26;20065;-62
2024/04/14 03:44:53;;;;;;;4.10;3.55;;;;;;;15.70;59.53;99312.38;5450582;26;19999;-62
2024/04/14 03:47:20;;;;;;;4.25;3.45;;;;;;;15.69;59.22;99308.03;5452345;26;20018;-62
2024/04/14 03:49:48;;;;;;;6.53;3.72;;;;;;;15.66;59.47;99308.75;5451732;26;20048;-62
2024/04/14 03:52:15;;;;;;;5.78;3.65;;;;;;;15.54;59.36;99306.13;5451122;26;20006;-63
2024/04/14 03:54:41;;;;;;;4.65;3.67;;;;;;;15.53;59.77;99309.22;5451642;26;20003;-62
2024/04/14 03:57:08;;;;;;;5.80;3.58;;;;;;;15.59;59.78;99314.09;5452108;26;19991;-62
2024/04/14 03:59:35;;;;;;;6.07;3.97;;;;;;;15.60;59.69;99310.19;5451757;26;20010;-62
2024/04/14 04:02:02;;;;;;;3.92;2.90;;;;;;;15.56;59.76;99309.28;5452380;26;20006;-61
2024/04/14 04:04:29;;;;;;;5.18;3.55;;;;;;;15.55;59.73;99307.72;5427878;26;20003;-61
2024/04/14 04:06:56;;;;;;;3.92;3.13;;;;;;;15.53;59.79;99322.97;5430191;26;20443;-61
2024/04/14 04:09:23;;;;;;;6.93;3.95;;;;;;;15.49;59.53;99319.38;5452559;26;20043;-62
2024/04/14 04:11:49;;;;;;;6.28;3.85;;;;;;;15.45;59.62;99313.81;5451858;26;19995;-62
2024/04/14 04:14:16;;;;;;;5.05;3.60;;;;;;;15.42;59.71;99318.03;5452770;26;20014;-61
2024/04/14 04:16:43;;;;;;;7.50;3.83;;;;;;;15.39;59.72;99327.00;5456040;26;19995;-62
2024/04/14 04:19:12;;;;;;;10.02;3.55;;;;;;;15.34;59.66;99323.75;5459224;26;20468;-61
2024/04/14 04:21:52;;;;;;;3.55;3.25;;;;;;;15.29;60.21;99324.06;5460057;26;20439;-62
2024/04/14 04:24:19;;;;;;;4.72;3.55;;;;;;;15.26;60.38;99324.78;5459090;26;20026;-64
2024/04/14 04:26:50;;;;;;;6.70;3.67;;;;;;;15.26;60.55;99316.53;5458141;26;19999;-61
2024/04/14 04:29:17;;;;;;;6.53;3.95;;;;;;;15.25;60.50;99315.72;5458439;26;19999;-61
2024/04/14 04:31:44;;;;;;;4.30;3.58;;;;;;;15.24;60.72;99325.09;5459228;26;20003;-61
2024/04/14 04:34:10;;;;;;;4.97;3.58;;;;;;;15.23;60.83;99322.72;5442764;26;20012;-61
2024/04/14 04:36:37;;;;;;;4.32;3.83;;;;;;;15.21;61.01;99327.78;5416720;26;20467;-61
2024/04/14 04:39:04;;;;;;;5.93;3.80;;;;;;;15.16;61.00;99320.63;5415292;26;20004;-61
2024/04/14 04:41:31;;;;;;;4.78;4.07;;;;;;;15.15;61.26;99319.03;5415146;26;20069;-61
2024/04/14 04:43:58;;;;;;;6.28;3.70;;;;;;;15.18;61.75;99325.75;5444817;26;20007;-61
2024/04/14 04:46:24;;;;;;;6.47;3.92;;;;;;;15.22;61.42;99323.88;5421129;26;20015;-61
2024/04/14 04:48:51;;;;;;;5.70;4.10;;;;;;;15.26;60.97;99322.03;5418752;26;20000;-61
2024/04/14 04:51:18;;;;;;;13.15;3.75;;;;;;;15.26;61.11;99322.81;5416931;26;20361;-61
2024/04/14 04:53:45;;;;;;;9.32;3.95;;;;;;;15.28;60.86;99316.97;5416659;26;20015;-60
2024/04/14 04:56:12;;;;;;;4.97;3.60;;;;;;;15.32;60.98;99320.56;5387206;26;20067;-60
2024/04/14 04:58:38;;;;;;;7.32;3.88;;;;;;;15.34;60.65;99321.81;5418171;26;20010;-61
2024/04/14 05:01:05;;;;;;;7.82;3.67;;;;;;;15.36;60.86;99329.69;5387729;26;20041;-60
2024/04/14 05:03:32;;;;;;;6.65;4.28;;;;;;;15.38;60.68;99330.13;5419717;26;20014;-60
2024/04/14 05:06:01;;;;;;;5.05;4.20;;;;;;;15.38;60.75;99327.38;5418374;26;20004;-61
2024/04/14 05:08:28;;;;;;;4.63;3.65;;;;;;;15.37;60.56;99328.53;5418704;26;20006;-61
2024/04/14 05:10:56;;;;;;;6.32;3.88;;;;;;;15.38;60.77;99330.91;5418288;26;19995;-61
2024/04/14 05:13:24;;;;;;;9.10;4.10;;;;;;;15.43;60.65;99329.81;5418515;26;20030;-60
2024/04/14 05:15:51;;;;;;;5.20;3.85;;;;;;;15.49;61.10;99333.09;5417973;26;20332;-62
2024/04/14 05:18:18;;;;;;;8.07;4.25;;;;;;;15.54;60.78;99332.81;5417824;26;20012;-62
2024/04/14 05:20:46;;;;;;;5.78;3.83;;;;;;;15.58;60.93;99328.19;5417735;26;20375;-61
2024/04/14 05:23:12;;;;;;;4.78;3.72;;;;;;;15.60;60.57;99326.69;5418314;26;20015;-62
2024/04/14 05:25:42;;;;;;;5.30;4.30;;;;;;;15.65;60.42;99326.41;5417933;26;20014;-61
2024/04/14 05:28:09;;;;;;;7.75;4.20;;;;;;;15.69;60.50;99334.72;5417986;26;19996;-61
2024/04/14 05:30:39;;;;;;;7.00;5.10;;;;;;;15.74;60.75;99339.94;5417967;26;19999;-61
2024/04/14 05:33:06;;;;;;;6.20;4.35;;;;;;;15.77;60.17;99330.94;5417543;26;19995;-61
2024/04/14 05:35:34;;;;;;;4.45;3.63;;;;;;;15.80;59.91;99337.69;5417555;26;20010;-61
2024/04/14 05:38:01;;;;;;;5.43;3.90;;;;;;;15.83;59.96;99339.72;5417730;26;20000;-60
2024/04/14 05:40:28;;;;;;;8.27;4.10;;;;;;;15.85;59.86;99334.66;5416699;26;20007;-61
2024/04/14 05:42:55;;;;;;;5.45;4.00;;;;;;;15.87;60.00;99340.59;5417570;26;19995;-61
2024/04/14 05:45:22;;;;;;;4.57;3.33;;;;;;;15.89;60.01;99344.56;5417627;26;20382;-61
2024/04/14 05:47:49;;;;;;;7.03;3.88;;;;;;;15.96;59.83;99347.44;5417496;26;19996;-62
2024/04/14 05:50:16;;;;;;;9.90;4.03;;;;;;;16.03;59.97;99353.09;5416904;26;20010;-61
2024/04/14 05:52:43;;;;;;;6.70;3.83;;;;;;;16.07;59.86;99357.84;5417290;26;20009;-61
2024/04/14 05:55:10;;;;;;;4.65;3.55;;;;;;;16.13;59.74;99356.41;5417200;26;20011;-61
2024/04/14 05:57:36;;;;;;;5.10;3.75;;;;;;;16.21;59.53;99358.13;5415856;26;20006;-62
2024/04/14 06:00:03;;;;;;;4.40;3.83;;;;;;;16.29;59.55;99357.09;5417255;26;20000;-61
2024/04/14 06:02:39;;;;;;;8.10;3.80;;;;;;;16.37;58.86;99358.81;5417177;26;20480;-61
2024/04/14 06:05:07;;;;;;;7.38;3.70;;;;;;;16.40;59.26;99358.09;5433056;26;20003;-61
2024/04/14 06:07:34;;;;;;;4.20;3.63;;;;;;;16.46;59.34;99358.56;5453056;26;20002;-62
2024/04/14 06:10:03;;;;;;;4.65;3.70;;;;;;;16.58;58.70;99352.88;5451393;26;20007;-62
2024/04/14 06:12:29;;;;;;;4.13;3.72;;;;;;;16.66;58.64;99351.84;5452596;26;20013;-61
2024/04/14 06:14:56;;;;;;;9.15;3.80;;;;;;;16.73;58.57;99349.22;5453180;26;20006;-62
2024/04/14 06:17:23;;;;;;;5.22;3.17;;;;;;;16.88;58.41;99353.00;5452844;26;19999;-62
2024/04/14 06:19:49;;;;;;;5.88;3.97;;;;;;;17.00;57.97;99347.28;5452621;26;19998;-61
2024/04/14 06:22:17;;;;;;;5.07;3.22;;;;;;;17.12;58.17;99355.34;5450577;26;19999;-61
2024/04/14 06:24:43;;;;;;;4.07;3.42;;;;;;;17.19;57.25;99357.41;5452530;26;19999;-62
2024/04/14 06:27:10;;;;;;;5.38;3.70;;;;;;;17.25;57.16;99350.41;5452854;26;20005;-62
2024/04/14 06:29:37;;;;;;;4.53;3.80;;;;;;;17.35;56.97;99355.28;5452902;26;19999;-61
2024/04/14 06:32:06;;;;;;;4.35;3.60;;;;;;;17.47;57.24;99357.00;5452393;26;20013;-62
2024/04/14 06:34:32;;;;;;;4.50;3.30;;;;;;;17.64;56.92;99355.63;5437308;26;20009;-62
2024/04/14 06:36:59;;;;;;;7.32;3.60;;;;;;;17.83;56.05;99352.75;5436091;26;20003;-62
2024/04/14 06:39:26;;;;;;;4.68;3.67;;;;;;;17.94;55.94;99359.19;5453120;26;20003;-62
2024/04/14 06:41:53;;;;;;;5.70;3.70;;;;;;;17.97;56.11;99358.44;5452296;26;19999;-62
2024/04/14 06:44:19;;;;;;;5.60;3.28;;;;;;;18.01;55.76;99359.28;5452823;26;20006;-63
2024/04/14 06:46:46;;;;;;;5.82;3.15;;;;;;;18.10;55.70;99359.78;5452515;26;20359;-63
2024/04/14 06:49:13;;;;;;;11.73;3.55;;;;;;;18.16;55.19;99358.25;5450429;26;19998;-62
2024/04/14 06:51:39;;;;;;;4.40;3.30;;;;;;;18.21;55.37;99348.03;5450658;26;20614;-62
2024/04/14 06:54:06;;;;;;;6.43;3.58;;;;;;;18.20;55.14;99361.06;5452455;26;20370;-62
2024/04/14 06:56:35;;;;;;;4.38;3.20;;;;;;;18.21;55.52;99362.63;5452367;26;20003;-62
2024/04/14 06:59:02;;;;;;;5.55;3.15;;;;;;;18.36;55.26;99358.06;5452731;26;19998;-62
2024/04/14 07:01:29;;;;;;;5.22;3.25;;;;;;;18.50;54.93;99357.41;5452273;26;20362;-62
2024/04/14 07:03:56;;;;;;;4.93;3.53;;;;;;;18.57;53.88;99357.47;5436922;26;20010;-63
2024/04/14 07:06:23;;;;;;;4.47;3.58;;;;;;;18.65;53.35;99359.94;5424135;26;20002;-62
2024/04/14 07:08:49;;;;;;;3.65;2.85;;;;;;;18.77;53.94;99354.09;5451792;26;20447;-62
2024/04/14 07:11:16;;;;;;;5.25;2.85;;;;;;;18.85;52.82;99352.22;5451764;26;20014;-64
2024/04/14 07:13:43;;;;;;;4.93;3.20;;;;;;;18.92;52.82;99355.03;5452206;26;20035;-63
2024/04/14 07:16:09;;;;;;;5.68;3.03;;;;;;;18.98;52.24;99353.50;5450091;26;19999;-62
2024/04/14 07:18:36;;;;;;;3.95;2.75;;;;;;;19.05;53.04;99361.03;5450085;26;20078;-63
2024/04/14 07:21:03;;;;;;;4.38;3.15;;;;;;;19.13;52.28;99359.91;5449730;26;20076;-62
2024/04/14 07:23:31;;;;;;;6.57;3.30;;;;;;;19.21;52.48;99344.97;5451844;26;20407;-61
2024/04/14 07:25:58;;;;;;;6.30;3.53;;;;;;;19.40;51.71;99346.66;5451649;26;20002;-62
2024/04/14 07:28:25;;;;;;;3.20;2.90;;;;;;;19.48;51.71;99351.03;5450519;26;20005;-62
2024/04/14 07:30:52;;;;;;;4.57;2.60;;;;;;;19.63;51.49;99355.47;5451352;26;20042;-62
2024/04/14 07:33:19;;;;;;;4.75;2.75;;;;;;;19.74;51.59;99354.75;5445898;26;20000;-62
2024/04/14 07:35:46;;;;;;;2.90;2.60;;;;;;;19.82;51.08;99356.34;5415628;26;20007;-62
2024/04/14 07:38:13;;;;;;;4.50;2.80;;;;;;;20.03;50.84;99358.38;5450985;26;20003;-61
2024/04/14 07:40:41;;;;;;;5.57;3.13;;;;;;;20.21;50.75;99353.69;5450992;26;20344;-61
2024/04/14 07:43:07;;;;;;;5.00;2.97;;;;;;;20.38;50.23;99346.59;5451489;26;20006;-62
2024/04/14 07:45:35;;;;;;;5.03;3.72;;;;;;;20.48;49.88;99354.19;5451323;26;20486;-63
2024/04/14 07:48:02;;;;;;;4.45;3.28;;;;;;;20.56;49.73;99352.97;5449434;26;20066;-63
2024/04/14 07:50:29;;;;;;;4.35;2.55;;;;;;;20.67;48.98;99348.25;5451002;26;20066;-63
2024/04/14 07:52:55;;;;;;;3.75;2.70;;;;;;;20.75;48.69;99346.25;5449720;26;19999;-63
2024/04/14 07:55:23;;;;;;;4.32;2.40;;;;;;;20.85;48.63;99339.94;5451308;26;20034;-65
2024/04/14 07:57:49;;;;;;;3.97;2.50;;;;;;;20.86;47.65;99344.28;5451161;26;19995;-64
2024/04/14 08:00:16;;;;;;;4.70;2.72;;;;;;;20.91;48.42;99351.41;5419514;26;20007;-64
2024/04/14 08:02:43;;;;;;;6.07;2.42;;;;;;;20.96;47.65;99337.94;5451279;26;20013;-63
2024/04/14 08:05:09;;;;;;;4.03;2.83;;;;;;;21.07;47.90;99344.25;5445200;26;20457;-63
2024/04/14 08:07:36;;;;;;;6.00;3.08;;;;;;;21.18;46.89;99333.13;5441645;26;20003;-63
2024/04/14 08:10:03;;;;;;;2.65;2.30;;;;;;;21.30;46.96;99340.28;5449556;26;20079;-63
2024/04/14 08:12:30;;;;;;;4.07;2.33;;;;;;;21.41;46.81;99341.06;5450921;26;20122;-64
2024/04/14 08:14:57;;;;;;;7.15;2.92;;;;;;;21.49;46.60;99341.81;5452071;26;20013;-64
2024/04/14 08:17:24;;;;;;;5.22;2.40;;;;;;;21.56;46.38;99342.56;5451504;26;20062;-63
2024/04/14 08:19:52;;;;;;;5.32;2.47;;;;;;;21.65;46.17;99342.16;5452407;26;20471;-64
2024/04/14 08:22:18;;;;;;;4.80;1.85;;;;;;;21.65;45.88;99337.38;5454528;26;19998;-63
2024/04/14 08:24:45;;;;;;;3.00;2.40;;;;;;;21.72;45.94;99340.13;5453018;26;20015;-63
2024/04/14 08:27:12;;;;;;;3.25;2.00;;;;;;;21.80;45.75;99340.91;5455206;26;20006;-64
2024/04/14 08:29:39;;;;;;;5.80;4.00;;;;;;;21.94;45.29;99340.03;5454479;26;19999;-63
2024/04/14 08:32:06;;;;;;;6.45;2.60;;;;;;;22.07;45.07;99338.41;5454016;26;20007;-63
2024/04/14 08:34:32;;;;;;;3.35;2.20;;;;;;;22.10;45.13;99345.91;5430136;26;20018;-63
2024/04/14 08:36:59;;;;;;;5.75;3.05;;;;;;;22.16;45.13;99338.75;5435347;26;20038;-63
2024/04/14 08:39:26;;;;;;;3.97;2.45;;;;;;;22.28;44.30;99341.03;5422612;26;20017;-62
2024/04/14 08:41:56;;;;;;;4.53;2.40;;;;;;;22.42;43.75;99331.84;5422184;26;19998;-63
2024/04/14 08:44:23;;;;;;;4.55;2.42;;;;;;;22.54;43.08;99339.69;5454248;26;20003;-63
2024/04/14 08:46:50;;;;;;;4.18;1.88;;;;;;;22.65;41.82;99334.03;5452509;26;20338;-62
2024/04/14 08:49:18;;;;;;;4.40;2.10;;;;;;;22.69;41.45;99332.03;5454160;26;20031;-65
2024/04/14 08:51:49;;;;;;;4.18;2.30;;;;;;;22.74;41.31;99337.16;5422056;26;19991;-65
2024/04/14 08:54:16;;;;;;;6.75;2.10;;;;;;;22.78;40.57;99345.47;5454037;26;20435;-65
2024/04/14 08:56:44;;;;;;;2.90;1.83;;;;;;;22.83;40.11;99334.69;5454023;26;19999;-64
2024/04/14 08:59:13;;;;;;;3.05;2.00;;;;;;;22.88;39.83;99337.06;5452464;26;20011;-64
2024/04/14 09:01:39;;;;;;;5.38;1.90;;;;;;;23.04;39.30;99330.94;5454612;26;20064;-65
2024/04/14 09:04:06;;;;;;;3.10;1.60;;;;;;;23.09;37.99;99335.28;5436368;26;20003;-65
2024/04/14 09:06:34;;;;;;;1.83;1.35;;;;;;;23.09;37.60;99341.63;5428393;26;20423;-65
2024/04/14 09:09:02;;;;;;;2.30;1.58;;;;;;;23.13;37.22;99334.03;5453624;26;20003;-65
2024/04/14 09:11:29;;;;;;;2.13;1.52;;;;;;;23.10;36.32;99328.50;5453749;26;19998;-65
2024/04/14 09:13:56;;;;;;;3.50;1.25;;;;;;;23.06;36.38;99330.53;5453961;26;20453;-65
2024/04/14 09:16:23;;;;;;;2.90;1.48;;;;;;;23.08;36.00;99323.38;5452215;26;20486;-65
2024/04/14 09:18:52;;;;;;;2.60;1.20;;;;;;;23.18;35.62;99328.00;5453927;26;20018;-65
2024/04/14 09:21:18;;;;;;;1.92;1.55;;;;;;;23.31;35.85;99333.84;5453280;26;19994;-63
2024/04/14 09:23:54;;;;;;;3.65;1.85;;;;;;;23.43;35.29;99335.31;5453452;26;20007;-64
2024/04/14 09:26:23;;;;;;;2.60;1.73;;;;;;;23.63;35.08;99330.72;5453796;26;20010;-64
2024/04/14 09:29:06;;;;;;;3.60;1.73;;;;;;;23.83;34.84;99328.09;5453425;26;19998;-64
2024/04/14 09:31:34;;;;;;;1.50;1.30;;;;;;;23.83;34.91;99328.09;5451471;26;20071;-64
2024/04/14 09:34:05;;;;;;;7.25;2.10;;;;;;;23.97;34.90;99321.53;5436971;26;20014;-64
2024/04/14 09:36:32;;;;;;;2.90;1.50;;;;;;;24.14;34.59;99329.63;5425918;26;20068;-64
2024/04/14 09:39:01;;;;;;;2.42;1.27;;;;;;;24.16;34.02;99327.22;5453506;26;20460;-64
2024/04/14 09:41:28;;;;;;;2.22;1.48;;;;;;;24.30;33.68;99329.03;5451790;26;20002;-63
2024/04/14 09:43:58;;;;;;;3.15;1.60;;;;;;;24.38;33.79;99327.75;5421996;26;20321;-63
2024/04/14 09:46:27;;;;;;;4.47;1.25;;;;;;;24.40;33.26;99321.75;5451802;26;20006;-64
2024/04/14 09:48:54;;;;;;;2.13;1.27;;;;;;;24.37;33.66;99320.59;5451555;26;20013;-64
2024/04/14 09:51:21;;;;;;;1.75;1.40;;;;;;;24.61;33.27;99320.59;5452234;26;20444;-64
2024/04/14 09:53:50;;;;;;;2.15;1.00;;;;;;;24.69;33.09;99308.91;5452402;26;20676;-64
2024/04/14 09:56:17;;;;;;;2.85;1.40;;;;;;;24.68;33.25;99312.09;5454127;26;20011;-64
2024/04/14 09:58:44;;;;;;;2.17;1.40;;;;;;;24.63;33.33;99309.81;5453262;26;20011;-65
2024/04/14 10:01:16;;;;;;;1.98;1.35;;;;;;;24.43;33.69;99307.72;5451818;26;19999;-65
2024/04/14 10:03:46;;;;;;;1.90;1.20;;;;;;;24.46;33.76;99300.53;5443073;26;20441;-63
2024/04/14 10:06:15;;;;;;;2.60;1.60;;;;;;;24.47;33.86;99313.25;5423475;26;20017;-63
2024/04/14 10:08:42;;;;;;;1.17;1.08;;;;;;;24.33;33.94;99311.47;5453376;26;20469;-63
2024/04/14 10:11:10;;;;;;;3.83;1.63;;;;;;;24.33;34.24;99311.47;5453247;26;20024;-63
2024/04/14 10:13:50;;;;;;;1.83;1.10;;;;;;;24.35;34.05;99309.03;5453966;26;20012;-64
2024/04/14 10:16:18;;;;;;;3.00;1.38;;;;;;;24.36;34.11;99301.50;5453488;26;20005;-64
2024/04/14 10:18:46;;;;;;;2.13;1.42;;;;;;;24.41;33.95;99309.38;5453633;26;20536;-64
2024/04/14 10:21:17;;;;;;;5.18;1.70;;;;;;;24.40;34.50;99297.44;5452732;26;19994;-63
2024/04/14 10:23:52;;;;;;;1.85;1.55;;;;;;;24.43;34.59;99298.59;5452788;26;20006;-63
2024/04/14 10:26:20;;;;;;;1.90;1.40;;;;;;;24.38;34.31;99297.06;5452880;26;20335;-65
2024/04/14 10:28:51;;;;;;;3.85;1.52;;;;;;;24.38;34.05;99287.91;5450908;26;20019;-63
2024/04/14 10:31:32;;;;;;;3.92;1.77;;;;;;;24.44;34.57;99284.22;5452534;26;20006;-65
2024/04/14 10:34:09;;;;;;;2.85;1.65;;;;;;;24.59;34.18;99284.78;5449423;26;19998;-63
2024/04/14 10:36:42;;;;;;;3.22;2.00;;;;;;;24.55;34.21;99280.47;5439426;26;20402;-64
2024/04/14 10:39:14;;;;;;;5.55;1.70;;;;;;;24.51;34.36;99282.50;5416716;26;20007;-64
2024/04/14 10:41:41;;;;;;;3.28;1.60;;;;;;;24.49;33.66;99282.94;5416359;26;20022;-64
2024/04/14 10:44:17;;;;;;;2.38;1.70;;;;;;;24.44;34.38;99275.06;5416397;26;20076;-64
2024/04/14 10:46:46;;;;;;;3.65;1.77;;;;;;;24.48;33.65;99278.56;5416503;26;20031;-65
2024/04/14 10:49:15;;;;;;;2.58;1.80;;;;;;;24.59;34.12;99281.19;5414583;26;20004;-64
2024/04/14 10:51:42;;;;;;;3.42;1.55;;;;;;;24.56;34.23;99268.91;5416111;26;19995;-66
2024/04/14 10:54:09;;;;;;;3.13;1.63;;;;;;;24.73;33.86;99276.16;5416855;26;20602;-65
2024/04/14 10:56:35;;;;;;;3.53;1.73;;;;;;;24.77;33.49;99282.47;5416793;26;20072;-64
2024/04/14 10:59:02;;;;;;;3.75;1.77;;;;;;;24.84;33.77;99278.75;5414608;26;20065;-65
2024/04/14 11:01:30;;;;;;;4.90;2.13;;;;;;;24.95;33.41;99273.78;5414374;26;20370;-66
2024/04/14 11:03:57;;;;;;;3.90;1.75;;;;;;;25.06;33.06;99281.97;5431378;26;20003;-65
2024/04/14 11:06:25;;;;;;;3.03;1.83;;;;;;;25.15;32.32;99259.09;5435541;26;20070;-67
2024/04/14 11:08:53;;;;;;;2.08;1.30;;;;;;;25.16;32.64;99271.81;5451992;26;20451;-65
2024/04/14 11:11:19;;;;;;;5.10;1.58;;;;;;;25.12;32.24;99260.72;5452150;26;20385;-65
2024/04/14 11:13:47;;;;;;;1.65;1.50;;;;;;;25.14;32.61;99263.88;5450306;26;19999;-64
2024/04/14 11:16:15;;;;;;;3.53;1.80;;;;;;;25.17;32.29;99260.22;5420737;26;20010;-64
2024/04/14 11:18:46;;;;;;;3.38;1.75;;;;;;;25.17;32.01;99260.22;5452266;26;20434;-63
2024/04/14 11:21:17;;;;;;;2.67;1.52;;;;;;;25.16;31.97;99255.88;5450129;26;20447;-64
2024/04/14 11:23:48;;;;;;;4.53;1.50;;;;;;;25.18;32.12;99247.06;5451698;26;19995;-64
2024/04/14 11:26:15;;;;;;;2.38;1.50;;;;;;;25.29;32.34;99233.69;5452538;26;19998;-63
2024/04/14 11:28:42;;;;;;;3.70;1.58;;;;;;;25.45;31.87;99238.50;5450531;26;19995;-65
2024/04/14 11:31:09;;;;;;;2.53;1.58;;;;;;;25.50;31.78;99241.59;5451928;26;20436;-65
2024/04/14 11:33:37;;;;;;;2.63;1.90;;;;;;;25.40;31.69;99236.22;5451848;26;20052;-65
2024/04/14 11:36:09;;;;;;;1.85;1.38;;;;;;;25.38;31.81;99233.88;5448196;26;19995;-65